sensor_id;sensor_type;location;lat;lon;timestamp;temperature;humidity
26063;DHT22;13837;48.562;12.108;2022-11-27T00:00:22;1.50;99.90
26063;DHT22;13837;48.562;12.108;2022-11-27T00:02:48;1.50;99.90
26063;DHT22;13837;48.562;12.108;2022-11-27T00:05:13;1.40;99.90
26063;DHT22;13837;48.562;12.108;2022-11-27T00:07:39;1.50;99.90
26063;DHT22;13837;48.562;12.108;2022-11-27T00:10:05;1.40;99.90
26063;DHT22;13837;48.562;12.108;2022-11-27T00:12:31;1.40;99.90
26063;DHT22;13837;48.562;12.108;2022-11-27T00:14:57;1.30;99.90
26063;DHT22;13837;48.562;12.108;2022-11-27T00:17:23;1.20;99.90
26063;DHT22;13837;48.562;12.108;2022-11-27T00:19:49;1.20;99.90
26063;DHT22;13837;48.562;12.108;2022-11-27T00:22:14;1.20;99.90
26063;DHT22;13837;48.562;12.108;2022-11-27T00:24:42;1.20;99.90
26063;DHT22;13837;48.562;12.108;2022-11-27T00:27:09;1.00;99.90
26063;DHT22;13837;48.562;12.108;2022-11-27T00:29:34;1.00;99.90
26063;DHT22;13837;48.562;12.108;2022-11-27T00:32:00;0.90;99.90
26063;DHT22;13837;48.562;12.108;2022-11-27T00:34:26;1.00;99.90
26063;DHT22;13837;48.562;12.108;2022-11-27T00:36:52;0.90;99.90
26063;DHT22;13837;48.562;12.108;2022-11-27T00:39:17;0.80;99.90
26063;DHT22;13837;48.562;12.108;2022-11-27T00:41:43;0.90;99.90
26063;DHT22;13837;48.562;12.108;2022-11-27T00:44:11;0.80;99.90
26063;DHT22;13837;48.562;12.108;2022-11-27T00:46:37;0.80;99.90
26063;DHT22;13837;48.562;12.108;2022-11-27T00:49:06;0.90;99.90
26063;DHT22;13837;48.562;12.108;2022-11-27T00:51:33;0.80;99.90
26063;DHT22;13837;48.562;12.108;2022-11-27T00:53:59;0.70;99.90
26063;DHT22;13837;48.562;12.108;2022-11-27T00:56:27;0.70;99.90
26063;DHT22;13837;48.562;12.108;2022-11-27T00:58:53;0.70;99.90
26063;DHT22;13837;48.562;12.108;2022-11-27T01:01:22;0.80;99.90
26063;DHT22;13837;48.562;12.108;2022-11-27T01:03:49;0.80;99.90
26063;DHT22;13837;48.562;12.108;2022-11-27T01:06:16;0.80;99.90
26063;DHT22;13837;48.562;12.108;2022-11-27T01:08:42;0.70;99.90
26063;DHT22;13837;48.562;12.108;2022-11-27T01:11:22;0.70;99.90
26063;DHT22;13837;48.562;12.108;2022-11-27T01:13:50;0.70;99.90
26063;DHT22;13837;48.562;12.108;2022-11-27T01:16:18;0.70;99.90
26063;DHT22;13837;48.562;12.108;2022-11-27T01:18:46;0.70;99.90
26063;DHT22;13837;48.562;12.108;2022-11-27T01:21:16;0.70;99.90
26063;DHT22;13837;48.562;12.108;2022-11-27T01:23:42;0.70;99.90
26063;DHT22;13837;48.562;12.108;2022-11-27T01:26:09;0.60;99.90
26063;DHT22;13837;48.562;12.108;2022-11-27T01:28:35;0.60;99.90
26063;DHT22;13837;48.562;12.108;2022-11-27T01:31:05;0.60;99.90
26063;DHT22;13837;48.562;12.108;2022-11-27T01:33:31;0.50;99.90
26063;DHT22;13837;48.562;12.108;2022-11-27T01:35:59;0.50;99.90
26063;DHT22;13837;48.562;12.108;2022-11-27T01:38:26;0.60;99.90
26063;DHT22;13837;48.562;12.108;2022-11-27T01:43:56;0.50;99.90
26063;DHT22;13837;48.562;12.108;2022-11-27T01:46:43;0.40;99.90
26063;DHT22;13837;48.562;12.108;2022-11-27T01:54:05;0.30;99.90
26063;DHT22;13837;48.562;12.108;2022-11-27T01:56:32;0.40;99.90
26063;DHT22;13837;48.562;12.108;2022-11-27T01:58:58;0.40;99.90
26063;DHT22;13837;48.562;12.108;2022-11-27T02:01:24;0.40;99.90
26063;DHT22;13837;48.562;12.108;2022-11-27T02:03:52;0.20;99.90
26063;DHT22;13837;48.562;12.108;2022-11-27T02:06:19;0.20;99.90
26063;DHT22;13837;48.562;12.108;2022-11-27T02:08:44;0.10;99.90
26063;DHT22;13837;48.562;12.108;2022-11-27T02:12:06;0.30;99.90
26063;DHT22;13837;48.562;12.108;2022-11-27T02:14:28;0.30;99.90
26063;DHT22;13837;48.562;12.108;2022-11-27T02:34:32;0.30;99.90
26063;DHT22;13837;48.562;12.108;2022-11-27T02:39:50;0.30;99.90
26063;DHT22;13837;48.562;12.108;2022-11-27T02:42:20;0.40;99.90
26063;DHT22;13837;48.562;12.108;2022-11-27T02:45:08;0.40;99.90
26063;DHT22;13837;48.562;12.108;2022-11-27T02:47:38;0.50;99.90
26063;DHT22;13837;48.562;12.108;2022-11-27T02:50:10;0.40;99.90
26063;DHT22;13837;48.562;12.108;2022-11-27T02:52:36;0.40;99.90
26063;DHT22;13837;48.562;12.108;2022-11-27T02:55:06;0.40;99.90
26063;DHT22;13837;48.562;12.108;2022-11-27T02:57:35;0.40;99.90
26063;DHT22;13837;48.562;12.108;2022-11-27T03:00:03;0.40;99.90
26063;DHT22;13837;48.562;12.108;2022-11-27T03:02:32;0.40;99.90
26063;DHT22;13837;48.562;12.108;2022-11-27T03:05:01;0.50;99.90
26063;DHT22;13837;48.562;12.108;2022-11-27T03:07:51;0.50;99.90
26063;DHT22;13837;48.562;12.108;2022-11-27T03:10:29;0.60;99.90
26063;DHT22;13837;48.562;12.108;2022-11-27T03:12:56;0.60;99.90
26063;DHT22;13837;48.562;12.108;2022-11-27T03:15:23;0.80;99.90
26063;DHT22;13837;48.562;12.108;2022-11-27T03:18:06;0.70;99.90
26063;DHT22;13837;48.562;12.108;2022-11-27T03:20:38;0.70;99.90
26063;DHT22;13837;48.562;12.108;2022-11-27T03:23:05;0.80;99.90
26063;DHT22;13837;48.562;12.108;2022-11-27T03:25:31;0.80;99.90
26063;DHT22;13837;48.562;12.108;2022-11-27T03:28:00;0.90;99.90
26063;DHT22;13837;48.562;12.108;2022-11-27T03:30:27;0.90;99.90
26063;DHT22;13837;48.562;12.108;2022-11-27T03:32:53;0.90;99.90
26063;DHT22;13837;48.562;12.108;2022-11-27T03:35:22;0.90;99.90
26063;DHT22;13837;48.562;12.108;2022-11-27T03:37:49;0.90;99.90
26063;DHT22;13837;48.562;12.108;2022-11-27T03:40:15;0.90;99.90
26063;DHT22;13837;48.562;12.108;2022-11-27T03:43:03;0.90;99.90
26063;DHT22;13837;48.562;12.108;2022-11-27T03:45:54;1.00;99.90
26063;DHT22;13837;48.562;12.108;2022-11-27T03:51:03;1.10;99.90
26063;DHT22;13837;48.562;12.108;2022-11-27T03:54:01;1.10;99.90
26063;DHT22;13837;48.562;12.108;2022-11-27T03:56:53;1.10;99.90
26063;DHT22;13837;48.562;12.108;2022-11-27T03:59:33;1.20;99.90
26063;DHT22;13837;48.562;12.108;2022-11-27T04:02:00;1.20;99.90
26063;DHT22;13837;48.562;12.108;2022-11-27T04:04:26;1.20;99.90
26063;DHT22;13837;48.562;12.108;2022-11-27T04:06:51;1.30;99.90
26063;DHT22;13837;48.562;12.108;2022-11-27T04:09:17;1.30;99.90
26063;DHT22;13837;48.562;12.108;2022-11-27T04:11:43;1.30;99.90
26063;DHT22;13837;48.562;12.108;2022-11-27T04:14:09;1.30;99.90
26063;DHT22;13837;48.562;12.108;2022-11-27T04:16:34;1.30;99.90
26063;DHT22;13837;48.562;12.108;2022-11-27T04:19:00;1.30;99.90
26063;DHT22;13837;48.562;12.108;2022-11-27T04:21:26;1.30;99.90
26063;DHT22;13837;48.562;12.108;2022-11-27T04:23:52;1.30;99.90
26063;DHT22;13837;48.562;12.108;2022-11-27T04:26:17;1.40;99.90
26063;DHT22;13837;48.562;12.108;2022-11-27T04:28:43;1.40;99.90
26063;DHT22;13837;48.562;12.108;2022-11-27T04:31:09;1.30;99.90
26063;DHT22;13837;48.562;12.108;2022-11-27T04:33:34;1.30;99.90
26063;DHT22;13837;48.562;12.108;2022-11-27T04:36:00;1.30;99.90
26063;DHT22;13837;48.562;12.108;2022-11-27T04:38:26;1.30;99.90
26063;DHT22;13837;48.562;12.108;2022-11-27T04:40:52;1.40;99.90
26063;DHT22;13837;48.562;12.108;2022-11-27T04:43:18;1.40;99.90
26063;DHT22;13837;48.562;12.108;2022-11-27T04:45:44;1.50;99.90
26063;DHT22;13837;48.562;12.108;2022-11-27T04:48:09;1.50;99.90
26063;DHT22;13837;48.562;12.108;2022-11-27T04:50:35;1.50;99.90
26063;DHT22;13837;48.562;12.108;2022-11-27T04:53:01;1.50;99.90
26063;DHT22;13837;48.562;12.108;2022-11-27T04:55:26;1.50;99.90
26063;DHT22;13837;48.562;12.108;2022-11-27T04:57:52;1.60;99.90
26063;DHT22;13837;48.562;12.108;2022-11-27T05:00:18;1.50;99.90
26063;DHT22;13837;48.562;12.108;2022-11-27T05:02:44;1.50;99.90
26063;DHT22;13837;48.562;12.108;2022-11-27T05:05:10;1.40;99.90
26063;DHT22;13837;48.562;12.108;2022-11-27T05:07:36;1.40;99.90
26063;DHT22;13837;48.562;12.108;2022-11-27T05:10:03;1.40;99.90
26063;DHT22;13837;48.562;12.108;2022-11-27T05:12:29;1.40;99.90
26063;DHT22;13837;48.562;12.108;2022-11-27T05:14:54;1.30;99.90
26063;DHT22;13837;48.562;12.108;2022-11-27T05:17:20;1.40;99.90
26063;DHT22;13837;48.562;12.108;2022-11-27T05:19:46;1.40;99.90
26063;DHT22;13837;48.562;12.108;2022-11-27T05:22:11;1.40;99.90
26063;DHT22;13837;48.562;12.108;2022-11-27T05:24:37;1.40;99.90
26063;DHT22;13837;48.562;12.108;2022-11-27T05:27:03;1.40;99.90
26063;DHT22;13837;48.562;12.108;2022-11-27T05:29:29;1.50;99.90
26063;DHT22;13837;48.562;12.108;2022-11-27T05:31:54;1.50;99.90
26063;DHT22;13837;48.562;12.108;2022-11-27T05:34:20;1.50;99.90
26063;DHT22;13837;48.562;12.108;2022-11-27T05:36:46;1.40;99.90
26063;DHT22;13837;48.562;12.108;2022-11-27T05:39:12;1.40;99.90
26063;DHT22;13837;48.562;12.108;2022-11-27T05:41:41;1.30;99.90
26063;DHT22;13837;48.562;12.108;2022-11-27T05:44:12;1.20;99.90
26063;DHT22;13837;48.562;12.108;2022-11-27T05:46:39;1.20;99.90
26063;DHT22;13837;48.562;12.108;2022-11-27T05:49:04;1.30;99.90
26063;DHT22;13837;48.562;12.108;2022-11-27T05:51:30;1.30;99.90
26063;DHT22;13837;48.562;12.108;2022-11-27T05:53:56;1.40;99.90
26063;DHT22;13837;48.562;12.108;2022-11-27T05:56:22;1.40;99.90
26063;DHT22;13837;48.562;12.108;2022-11-27T05:58:48;1.40;99.90
26063;DHT22;13837;48.562;12.108;2022-11-27T06:01:15;1.40;99.90
26063;DHT22;13837;48.562;12.108;2022-11-27T06:03:42;1.30;99.90
26063;DHT22;13837;48.562;12.108;2022-11-27T06:06:16;1.40;99.90
26063;DHT22;13837;48.562;12.108;2022-11-27T06:08:43;1.30;99.90
26063;DHT22;13837;48.562;12.108;2022-11-27T06:11:19;1.20;99.90
26063;DHT22;13837;48.562;12.108;2022-11-27T06:13:46;1.30;99.90
26063;DHT22;13837;48.562;12.108;2022-11-27T06:16:21;1.20;99.90
26063;DHT22;13837;48.562;12.108;2022-11-27T06:18:52;1.10;99.90
26063;DHT22;13837;48.562;12.108;2022-11-27T06:21:19;1.00;99.90
26063;DHT22;13837;48.562;12.108;2022-11-27T06:23:45;1.00;99.90
26063;DHT22;13837;48.562;12.108;2022-11-27T06:28:40;1.10;99.90
26063;DHT22;13837;48.562;12.108;2022-11-27T06:31:11;1.00;99.90
26063;DHT22;13837;48.562;12.108;2022-11-27T06:33:37;1.10;99.90
26063;DHT22;13837;48.562;12.108;2022-11-27T06:36:03;1.10;99.90
26063;DHT22;13837;48.562;12.108;2022-11-27T06:38:31;1.10;99.90
26063;DHT22;13837;48.562;12.108;2022-11-27T06:41:14;1.10;99.90
26063;DHT22;13837;48.562;12.108;2022-11-27T06:43:41;1.10;99.90
26063;DHT22;13837;48.562;12.108;2022-11-27T06:46:10;1.20;99.90
26063;DHT22;13837;48.562;12.108;2022-11-27T06:48:37;1.20;99.90
26063;DHT22;13837;48.562;12.108;2022-11-27T06:51:04;1.20;99.90
26063;DHT22;13837;48.562;12.108;2022-11-27T06:53:32;1.30;99.90
26063;DHT22;13837;48.562;12.108;2022-11-27T06:56:05;1.30;99.90
26063;DHT22;13837;48.562;12.108;2022-11-27T06:58:31;1.40;99.90
26063;DHT22;13837;48.562;12.108;2022-11-27T07:00:58;1.50;99.90
26063;DHT22;13837;48.562;12.108;2022-11-27T07:03:24;1.50;99.90
26063;DHT22;13837;48.562;12.108;2022-11-27T07:05:50;1.60;99.90
26063;DHT22;13837;48.562;12.108;2022-11-27T07:08:16;1.70;99.90
26063;DHT22;13837;48.562;12.108;2022-11-27T07:10:41;1.60;99.90
26063;DHT22;13837;48.562;12.108;2022-11-27T07:13:07;1.60;99.90
26063;DHT22;13837;48.562;12.108;2022-11-27T07:15:33;1.70;99.90
26063;DHT22;13837;48.562;12.108;2022-11-27T07:17:59;1.70;99.90
26063;DHT22;13837;48.562;12.108;2022-11-27T07:20:24;1.70;99.90
26063;DHT22;13837;48.562;12.108;2022-11-27T07:22:50;1.70;99.90
26063;DHT22;13837;48.562;12.108;2022-11-27T07:25:16;1.70;99.90
26063;DHT22;13837;48.562;12.108;2022-11-27T07:27:42;1.80;99.90
26063;DHT22;13837;48.562;12.108;2022-11-27T07:30:08;1.80;99.90
26063;DHT22;13837;48.562;12.108;2022-11-27T07:32:33;1.90;99.90
26063;DHT22;13837;48.562;12.108;2022-11-27T07:34:59;1.90;99.90
26063;DHT22;13837;48.562;12.108;2022-11-27T07:37:25;1.90;99.90
26063;DHT22;13837;48.562;12.108;2022-11-27T07:39:51;2.00;99.90
26063;DHT22;13837;48.562;12.108;2022-11-27T07:42:16;2.00;99.90
26063;DHT22;13837;48.562;12.108;2022-11-27T07:44:46;1.90;99.90
26063;DHT22;13837;48.562;12.108;2022-11-27T07:47:12;1.90;99.90
26063;DHT22;13837;48.562;12.108;2022-11-27T07:49:38;2.00;99.90
26063;DHT22;13837;48.562;12.108;2022-11-27T07:52:04;2.10;99.90
26063;DHT22;13837;48.562;12.108;2022-11-27T07:54:29;2.00;99.90
26063;DHT22;13837;48.562;12.108;2022-11-27T07:56:55;2.10;99.90
26063;DHT22;13837;48.562;12.108;2022-11-27T07:59:21;2.00;99.90
26063;DHT22;13837;48.562;12.108;2022-11-27T08:01:47;1.80;99.90
26063;DHT22;13837;48.562;12.108;2022-11-27T08:04:12;1.80;99.90
26063;DHT22;13837;48.562;12.108;2022-11-27T08:06:38;1.80;99.90
26063;DHT22;13837;48.562;12.108;2022-11-27T08:09:04;1.90;99.90
26063;DHT22;13837;48.562;12.108;2022-11-27T08:11:31;1.90;99.90
26063;DHT22;13837;48.562;12.108;2022-11-27T08:14:02;1.90;99.90
26063;DHT22;13837;48.562;12.108;2022-11-27T08:16:29;2.00;99.90
26063;DHT22;13837;48.562;12.108;2022-11-27T08:18:54;2.00;99.90
26063;DHT22;13837;48.562;12.108;2022-11-27T08:21:21;2.00;99.90
26063;DHT22;13837;48.562;12.108;2022-11-27T08:23:46;1.90;99.90
26063;DHT22;13837;48.562;12.108;2022-11-27T08:26:13;1.90;99.90
26063;DHT22;13837;48.562;12.108;2022-11-27T08:28:39;1.90;99.90
26063;DHT22;13837;48.562;12.108;2022-11-27T08:31:07;1.80;99.90
26063;DHT22;13837;48.562;12.108;2022-11-27T08:33:33;1.90;99.90
26063;DHT22;13837;48.562;12.108;2022-11-27T08:35:59;1.90;99.90
26063;DHT22;13837;48.562;12.108;2022-11-27T08:38:25;1.90;99.90
26063;DHT22;13837;48.562;12.108;2022-11-27T08:40:58;1.90;99.90
26063;DHT22;13837;48.562;12.108;2022-11-27T08:43:24;1.90;99.90
26063;DHT22;13837;48.562;12.108;2022-11-27T08:45:51;1.80;99.90
26063;DHT22;13837;48.562;12.108;2022-11-27T08:48:17;1.80;99.90
26063;DHT22;13837;48.562;12.108;2022-11-27T08:50:43;1.80;99.90
26063;DHT22;13837;48.562;12.108;2022-11-27T08:53:10;1.90;99.90
26063;DHT22;13837;48.562;12.108;2022-11-27T08:55:35;2.00;99.90
26063;DHT22;13837;48.562;12.108;2022-11-27T08:58:01;2.00;99.90
26063;DHT22;13837;48.562;12.108;2022-11-27T09:00:29;2.10;99.90
26063;DHT22;13837;48.562;12.108;2022-11-27T09:02:54;2.10;99.90
26063;DHT22;13837;48.562;12.108;2022-11-27T09:05:20;2.10;99.90
26063;DHT22;13837;48.562;12.108;2022-11-27T09:07:46;2.30;99.90
26063;DHT22;13837;48.562;12.108;2022-11-27T09:10:12;2.30;99.90
26063;DHT22;13837;48.562;12.108;2022-11-27T09:12:38;2.30;99.90
26063;DHT22;13837;48.562;12.108;2022-11-27T09:15:04;2.40;99.90
26063;DHT22;13837;48.562;12.108;2022-11-27T09:17:29;2.40;99.90
26063;DHT22;13837;48.562;12.108;2022-11-27T09:19:55;2.30;99.90
26063;DHT22;13837;48.562;12.108;2022-11-27T09:22:21;2.40;99.90
26063;DHT22;13837;48.562;12.108;2022-11-27T09:24:47;2.40;99.90
26063;DHT22;13837;48.562;12.108;2022-11-27T09:27:12;2.40;99.90
26063;DHT22;13837;48.562;12.108;2022-11-27T09:29:38;2.40;99.90
26063;DHT22;13837;48.562;12.108;2022-11-27T09:32:04;2.50;99.90
26063;DHT22;13837;48.562;12.108;2022-11-27T09:34:30;2.60;99.90
26063;DHT22;13837;48.562;12.108;2022-11-27T09:36:55;2.70;99.90
26063;DHT22;13837;48.562;12.108;2022-11-27T09:39:21;2.60;99.90
26063;DHT22;13837;48.562;12.108;2022-11-27T09:41:54;2.60;99.90
26063;DHT22;13837;48.562;12.108;2022-11-27T09:44:49;2.70;99.90
26063;DHT22;13837;48.562;12.108;2022-11-27T09:50:00;2.80;99.90
26063;DHT22;13837;48.562;12.108;2022-11-27T09:55:20;2.90;99.90
26063;DHT22;13837;48.562;12.108;2022-11-27T09:58:17;3.10;99.90
26063;DHT22;13837;48.562;12.108;2022-11-27T10:00:45;3.10;99.90
26063;DHT22;13837;48.562;12.108;2022-11-27T10:03:19;3.00;99.90
26063;DHT22;13837;48.562;12.108;2022-11-27T10:11:39;3.10;99.90
26063;DHT22;13837;48.562;12.108;2022-11-27T10:14:23;3.10;99.90
26063;DHT22;13837;48.562;12.108;2022-11-27T10:17:09;3.10;99.90
26063;DHT22;13837;48.562;12.108;2022-11-27T10:24:54;3.30;99.90
26063;DHT22;13837;48.562;12.108;2022-11-27T10:27:27;3.40;99.90
26063;DHT22;13837;48.562;12.108;2022-11-27T10:29:55;3.40;99.90
26063;DHT22;13837;48.562;12.108;2022-11-27T10:32:29;3.50;99.90
26063;DHT22;13837;48.562;12.108;2022-11-27T10:35:03;3.50;99.90
26063;DHT22;13837;48.562;12.108;2022-11-27T10:37:35;3.60;99.90
26063;DHT22;13837;48.562;12.108;2022-11-27T10:45:21;3.60;99.90
26063;DHT22;13837;48.562;12.108;2022-11-27T10:47:48;3.60;99.90
26063;DHT22;13837;48.562;12.108;2022-11-27T10:50:16;3.50;99.90
26063;DHT22;13837;48.562;12.108;2022-11-27T10:52:52;3.60;99.90
26063;DHT22;13837;48.562;12.108;2022-11-27T10:55:33;3.70;99.90
26063;DHT22;13837;48.562;12.108;2022-11-27T10:58:14;3.80;99.90
26063;DHT22;13837;48.562;12.108;2022-11-27T11:00:41;3.80;99.90
26063;DHT22;13837;48.562;12.108;2022-11-27T11:03:16;3.90;99.90
26063;DHT22;13837;48.562;12.108;2022-11-27T11:05:54;3.90;99.90
26063;DHT22;13837;48.562;12.108;2022-11-27T11:08:20;4.00;99.90
26063;DHT22;13837;48.562;12.108;2022-11-27T11:13:27;3.90;99.90
26063;DHT22;13837;48.562;12.108;2022-11-27T11:16:03;4.10;99.90
26063;DHT22;13837;48.562;12.108;2022-11-27T11:18:31;4.10;99.90
26063;DHT22;13837;48.562;12.108;2022-11-27T11:21:00;4.10;99.90
26063;DHT22;13837;48.562;12.108;2022-11-27T11:23:30;4.20;99.90
26063;DHT22;13837;48.562;12.108;2022-11-27T11:25:59;4.40;99.90
26063;DHT22;13837;48.562;12.108;2022-11-27T11:28:27;4.40;99.90
26063;DHT22;13837;48.562;12.108;2022-11-27T11:31:06;4.40;99.90
26063;DHT22;13837;48.562;12.108;2022-11-27T11:36:15;4.40;99.90
26063;DHT22;13837;48.562;12.108;2022-11-27T11:38:49;4.20;99.90
26063;DHT22;13837;48.562;12.108;2022-11-27T11:41:50;4.20;99.90
26063;DHT22;13837;48.562;12.108;2022-11-27T11:48:28;4.00;99.90
26063;DHT22;13837;48.562;12.108;2022-11-27T11:51:12;4.10;99.90
26063;DHT22;13837;48.562;12.108;2022-11-27T11:54:03;4.10;99.90
26063;DHT22;13837;48.562;12.108;2022-11-27T11:56:59;4.20;99.90
26063;DHT22;13837;48.562;12.108;2022-11-27T12:04:31;4.20;99.90
26063;DHT22;13837;48.562;12.108;2022-11-27T12:10:07;4.40;99.90
26063;DHT22;13837;48.562;12.108;2022-11-27T12:26:15;4.70;99.90
26063;DHT22;13837;48.562;12.108;2022-11-27T12:34:21;4.80;99.90
26063;DHT22;13837;48.562;12.108;2022-11-27T12:36:57;4.90;99.90
26063;DHT22;13837;48.562;12.108;2022-11-27T12:39:32;4.90;99.90
26063;DHT22;13837;48.562;12.108;2022-11-27T12:45:00;4.60;99.90
26063;DHT22;13837;48.562;12.108;2022-11-27T12:47:54;4.40;99.90
26063;DHT22;13837;48.562;12.108;2022-11-27T12:53:38;4.40;99.90
26063;DHT22;13837;48.562;12.108;2022-11-27T12:58:50;4.50;99.90
26063;DHT22;13837;48.562;12.108;2022-11-27T13:01:32;4.40;99.90
26063;DHT22;13837;48.562;12.108;2022-11-27T13:06:27;4.30;99.90
26063;DHT22;13837;48.562;12.108;2022-11-27T13:09:12;4.30;99.90
26063;DHT22;13837;48.562;12.108;2022-11-27T13:11:40;4.40;99.90
26063;DHT22;13837;48.562;12.108;2022-11-27T13:14:20;4.50;99.90
26063;DHT22;13837;48.562;12.108;2022-11-27T13:16:55;4.50;99.90
26063;DHT22;13837;48.562;12.108;2022-11-27T13:19:30;4.60;99.90
26063;DHT22;13837;48.562;12.108;2022-11-27T13:21:58;4.60;99.90
26063;DHT22;13837;48.562;12.108;2022-11-27T13:24:25;4.50;99.90
26063;DHT22;13837;48.562;12.108;2022-11-27T13:27:07;4.20;99.90
26063;DHT22;13837;48.562;12.108;2022-11-27T13:30:05;4.20;99.90
26063;DHT22;13837;48.562;12.108;2022-11-27T13:32:47;4.10;99.90
26063;DHT22;13837;48.562;12.108;2022-11-27T13:35:37;4.20;99.90
26063;DHT22;13837;48.562;12.108;2022-11-27T13:38:21;4.30;99.90
26063;DHT22;13837;48.562;12.108;2022-11-27T13:40:49;4.30;99.90
26063;DHT22;13837;48.562;12.108;2022-11-27T13:45:46;4.30;99.90
26063;DHT22;13837;48.562;12.108;2022-11-27T13:48:30;4.30;99.90
26063;DHT22;13837;48.562;12.108;2022-11-27T13:50:57;4.30;99.90
26063;DHT22;13837;48.562;12.108;2022-11-27T13:53:39;4.30;99.90
26063;DHT22;13837;48.562;12.108;2022-11-27T13:56:06;4.20;99.90
26063;DHT22;13837;48.562;12.108;2022-11-27T13:58:41;4.30;99.90
26063;DHT22;13837;48.562;12.108;2022-11-27T14:01:18;4.20;99.90
26063;DHT22;13837;48.562;12.108;2022-11-27T14:03:45;4.10;99.90
26063;DHT22;13837;48.562;12.108;2022-11-27T14:06:29;4.10;99.90
26063;DHT22;13837;48.562;12.108;2022-11-27T14:09:04;4.20;99.90
26063;DHT22;13837;48.562;12.108;2022-11-27T14:11:35;4.20;99.90
26063;DHT22;13837;48.562;12.108;2022-11-27T14:14:19;4.20;99.90
26063;DHT22;13837;48.562;12.108;2022-11-27T14:17:02;4.20;99.90
26063;DHT22;13837;48.562;12.108;2022-11-27T14:19:38;4.20;99.90
26063;DHT22;13837;48.562;12.108;2022-11-27T14:22:28;4.20;99.90
26063;DHT22;13837;48.562;12.108;2022-11-27T14:24:55;4.20;99.90
26063;DHT22;13837;48.562;12.108;2022-11-27T14:27:24;4.10;99.90
26063;DHT22;13837;48.562;12.108;2022-11-27T14:29:50;4.00;99.90
26063;DHT22;13837;48.562;12.108;2022-11-27T14:32:18;4.10;99.90
26063;DHT22;13837;48.562;12.108;2022-11-27T14:34:45;4.10;99.90
26063;DHT22;13837;48.562;12.108;2022-11-27T14:37:26;4.00;99.90
26063;DHT22;13837;48.562;12.108;2022-11-27T14:39:53;3.90;99.90
26063;DHT22;13837;48.562;12.108;2022-11-27T14:42:24;3.90;99.90
26063;DHT22;13837;48.562;12.108;2022-11-27T14:45:04;3.90;99.90
26063;DHT22;13837;48.562;12.108;2022-11-27T14:47:31;3.90;99.90
26063;DHT22;13837;48.562;12.108;2022-11-27T14:49:58;3.90;99.90
26063;DHT22;13837;48.562;12.108;2022-11-27T14:52:25;3.80;99.90
26063;DHT22;13837;48.562;12.108;2022-11-27T14:54:52;3.80;99.90
26063;DHT22;13837;48.562;12.108;2022-11-27T14:57:23;3.70;99.90
26063;DHT22;13837;48.562;12.108;2022-11-27T15:00:09;3.70;99.90
26063;DHT22;13837;48.562;12.108;2022-11-27T15:05:22;3.70;99.90
26063;DHT22;13837;48.562;12.108;2022-11-27T15:07:54;3.70;99.90
26063;DHT22;13837;48.562;12.108;2022-11-27T15:10:27;3.70;99.90
26063;DHT22;13837;48.562;12.108;2022-11-27T15:12:55;3.60;99.90
26063;DHT22;13837;48.562;12.108;2022-11-27T15:15:23;3.70;99.90
26063;DHT22;13837;48.562;12.108;2022-11-27T15:17:56;3.70;99.90
26063;DHT22;13837;48.562;12.108;2022-11-27T15:20:41;3.60;99.90
26063;DHT22;13837;48.562;12.108;2022-11-27T15:23:18;3.70;99.90
26063;DHT22;13837;48.562;12.108;2022-11-27T15:25:47;3.60;99.90
26063;DHT22;13837;48.562;12.108;2022-11-27T15:28:37;3.50;99.90
26063;DHT22;13837;48.562;12.108;2022-11-27T15:31:29;3.40;99.90
26063;DHT22;13837;48.562;12.108;2022-11-27T15:34:01;3.40;99.90
26063;DHT22;13837;48.562;12.108;2022-11-27T15:36:57;3.30;99.90
26063;DHT22;13837;48.562;12.108;2022-11-27T15:39:45;3.20;99.90
26063;DHT22;13837;48.562;12.108;2022-11-27T15:42:13;3.00;99.90
26063;DHT22;13837;48.562;12.108;2022-11-27T15:44:42;3.00;99.90
26063;DHT22;13837;48.562;12.108;2022-11-27T15:47:27;2.90;99.90
26063;DHT22;13837;48.562;12.108;2022-11-27T15:49:53;2.90;99.90
26063;DHT22;13837;48.562;12.108;2022-11-27T15:52:19;2.90;99.90
26063;DHT22;13837;48.562;12.108;2022-11-27T15:54:45;2.90;99.90
26063;DHT22;13837;48.562;12.108;2022-11-27T15:57:11;2.90;99.90
26063;DHT22;13837;48.562;12.108;2022-11-27T15:59:38;2.90;99.90
26063;DHT22;13837;48.562;12.108;2022-11-27T16:02:04;2.90;99.90
26063;DHT22;13837;48.562;12.108;2022-11-27T16:04:30;2.90;99.90
26063;DHT22;13837;48.562;12.108;2022-11-27T16:06:55;3.00;99.90
26063;DHT22;13837;48.562;12.108;2022-11-27T16:09:22;3.00;99.90
26063;DHT22;13837;48.562;12.108;2022-11-27T16:11:48;2.90;99.90
26063;DHT22;13837;48.562;12.108;2022-11-27T16:25:01;2.70;99.90
26063;DHT22;13837;48.562;12.108;2022-11-27T16:30:09;2.70;99.90
26063;DHT22;13837;48.562;12.108;2022-11-27T16:32:37;2.80;99.90
26063;DHT22;13837;48.562;12.108;2022-11-27T16:35:04;2.80;99.90
26063;DHT22;13837;48.562;12.108;2022-11-27T16:37:30;2.80;99.90
26063;DHT22;13837;48.562;12.108;2022-11-27T16:39:56;2.70;99.90
26063;DHT22;13837;48.562;12.108;2022-11-27T16:42:22;2.60;99.90
26063;DHT22;13837;48.562;12.108;2022-11-27T16:44:50;2.50;99.90
26063;DHT22;13837;48.562;12.108;2022-11-27T16:47:16;2.40;99.90
26063;DHT22;13837;48.562;12.108;2022-11-27T16:49:42;2.40;99.90
26063;DHT22;13837;48.562;12.108;2022-11-27T16:52:08;2.50;99.90
26063;DHT22;13837;48.562;12.108;2022-11-27T16:54:36;2.40;99.90
26063;DHT22;13837;48.562;12.108;2022-11-27T16:57:02;2.40;99.90
26063;DHT22;13837;48.562;12.108;2022-11-27T16:59:28;2.40;99.90
26063;DHT22;13837;48.562;12.108;2022-11-27T17:01:54;2.30;99.90
26063;DHT22;13837;48.562;12.108;2022-11-27T17:04:20;2.40;99.90
26063;DHT22;13837;48.562;12.108;2022-11-27T17:06:47;2.50;99.90
26063;DHT22;13837;48.562;12.108;2022-11-27T17:09:14;2.50;99.90
26063;DHT22;13837;48.562;12.108;2022-11-27T17:11:42;2.50;99.90
26063;DHT22;13837;48.562;12.108;2022-11-27T17:14:08;2.50;99.90
26063;DHT22;13837;48.562;12.108;2022-11-27T17:16:35;2.60;99.90
26063;DHT22;13837;48.562;12.108;2022-11-27T17:19:03;2.60;99.90
26063;DHT22;13837;48.562;12.108;2022-11-27T17:21:32;2.60;99.90
26063;DHT22;13837;48.562;12.108;2022-11-27T17:24:01;2.50;99.90
26063;DHT22;13837;48.562;12.108;2022-11-27T17:26:32;2.50;99.90
26063;DHT22;13837;48.562;12.108;2022-11-27T17:28:59;2.50;99.90
26063;DHT22;13837;48.562;12.108;2022-11-27T17:31:29;2.60;99.90
26063;DHT22;13837;48.562;12.108;2022-11-27T17:33:57;2.60;99.90
26063;DHT22;13837;48.562;12.108;2022-11-27T17:36:28;2.50;99.90
26063;DHT22;13837;48.562;12.108;2022-11-27T17:38:54;2.50;99.90
26063;DHT22;13837;48.562;12.108;2022-11-27T17:41:21;2.50;99.90
26063;DHT22;13837;48.562;12.108;2022-11-27T17:43:48;2.40;99.90
26063;DHT22;13837;48.562;12.108;2022-11-27T17:46:19;2.40;99.90
26063;DHT22;13837;48.562;12.108;2022-11-27T17:48:47;2.30;99.90